Latest Weather Observations for Tunnack

IDT60801

Issued at 6:32 am EST Saturday 24 June 2017 (issued every 30 minutes, with the page automatically refreshed every 10 minutes)

About weather observations | Map of weather stations | Latest weather observations for TAS | Other Formats
Station Details ID: 094195 Name: TUNNACK FIRE STATION Lat: -42.45 Lon: 147.46 Height: 461.5 m
Data from the previous 72 hours. | See also: Recent months at Tunnack
Date/Time
EST
Temp
°C
App
Temp
°C
Dew
Point
°C
Rel
Hum
%
Delta-T
°C
Wind Press
QNH
hPa
Press
MSL
hPa
Rain since
9am
mm
Dir  Spd
km/h
Gust
km/h
Spd
kts
Gust
kts
24/06:30am -1.3 -3.6 -2.6 91 0.4 CALM 0 6 0 3 1008.2 1009.1 2.0
24/06:00am -1.0 -5.4 -2.6 89 0.5 WNW 11 13 6 7 1007.9 1008.7 2.0
24/05:30am -0.3 -6.2 -2.0 88 0.6 WNW 19 28 10 15 1007.5 1008.4 2.0
24/05:00am -0.3 -5.1 -2.3 86 0.7 W 13 22 7 12 1007.4 1008.3 2.0
24/04:30am -0.4 -5.6 -2.8 84 0.8 W 15 20 8 11 1007.3 1008.2 2.0
24/04:00am 0.3 -5.3 -2.7 80 1.1 W 17 24 9 13 1007.1 1008.0 2.0
24/03:30am 0.1 -5.8 -2.4 83 0.9 W 19 26 10 14 1007.1 1008.0 2.0
24/03:00am -0.5 -6.0 -2.4 87 0.6 W 17 20 9 11 1007.3 1008.2 2.0
24/02:30am -0.1 -5.9 -1.8 88 0.6 W 19 28 10 15 1006.9 1007.8 2.0
24/02:00am 0.0 -5.1 -2.1 86 0.7 W 15 20 8 11 1006.7 1007.6 2.0
24/01:30am 0.9 -5.5 -1.8 82 1.0 W 22 32 12 17 1006.5 1007.4 2.0
24/01:00am 0.5 -4.5 -1.3 88 0.7 WSW 15 24 8 13 1006.2 1007.0 2.0
24/12:30am 0.8 -5.2 -1.4 85 0.8 W 20 32 11 17 1006.0 1006.8 2.0
24/12:00am 1.3 -4.1 -1.3 83 0.9 WSW 17 26 9 14 1006.0 1006.8 2.0
 
Date/Time
EST
Temp
°C
App
Temp
°C
Dew
Point
°C
Rel
Hum
%
Delta-T
°C
Wind Press
QNH
hPa
Press
MSL
hPa
Rain since
9am
mm
Dir  Spd
km/h
Gust
km/h
Spd
kts
Gust
kts
23/11:30pm 1.1 -4.9 -1.3 84 0.9 WSW 20 28 11 15 1005.4 1006.3 2.0
23/11:00pm 1.4 -4.3 -0.8 85 0.8 W 19 30 10 16 1005.6 1006.4 2.0
23/10:30pm 1.1 -3.9 -1.5 83 0.9 W 15 22 8 12 1004.7 1005.6 2.0
23/10:00pm 1.2 -3.8 -1.5 82 1.0 W 15 24 8 13 1004.3 1005.1 2.0
23/09:30pm 1.8 -4.6 -1.6 78 1.2 WSW 22 37 12 20 1003.9 1004.7 2.0
23/09:00pm 2.1 -4.3 -1.5 77 1.3 W 22 37 12 20 1003.5 1004.3 2.0
23/08:30pm 2.0 -3.3 -0.7 82 1.0 W 17 30 9 16 1003.1 1004.0 2.0
23/08:00pm 2.5 -3.7 -0.6 80 1.2 W 22 43 12 23 1003.0 1003.9 2.0
23/07:30pm 2.8 -4.2 -0.3 80 1.2 W 26 43 14 23 1002.7 1003.6 2.0
23/07:00pm 3.4 -2.2 1.3 86 0.8 W 20 41 11 22 1002.5 1003.3 2.0
23/06:30pm 3.8 -1.1 2.0 88 0.7 WSW 17 32 9 17 1002.4 1003.2 1.8
23/06:00pm 4.5 -2.4 2.7 88 0.8 WSW 28 48 15 26 1001.9 1002.7 1.6
23/05:56pm 4.7 -1.4 3.0 89 0.7 SW 24 48 13 26 1001.7 1002.5 1.6
23/05:30pm 6.4 -1.0 4.1 85 1.0 WNW 32 48 17 26 1000.4 1001.2 0.4
23/05:26pm 6.5 -0.1 4.0 84 1.1 WNW 28 48 15 26 1000.3 1001.1 0.4
23/05:00pm 7.0 1.1 4.1 82 1.3 NW 24 35 13 19 1000.1 1000.9 0.4
23/04:30pm 6.5 0.0 4.7 88 0.8 WNW 28 35 15 19 1000.4 1001.2 0.4
23/04:00pm 6.7 -0.8 4.7 87 0.9 WNW 33 46 18 25 1000.6 1001.4 0.4
23/03:30pm 8.2 1.3 4.8 79 1.5 W 30 48 16 26 1000.8 1001.7 0.0
23/03:01pm 9.8 1.4 3.8 66 2.7 WNW 37 67 20 36 1000.1 1000.9 0.0
23/03:00pm 9.9 1.1 3.4 64 2.9 WNW 39 67 21 36 1000.1 1000.9 0.0
23/02:58pm 10.1 0.5 3.4 63 3.0 WNW 43 67 23 36 1000.1 1000.9 0.0
23/02:44pm 11.0 2.3 2.1 54 3.9 NW 37 56 20 30 999.9 1000.7 0.0
23/02:30pm 10.8 0.4 2.1 55 3.8 NW 46 63 25 34 999.7 1000.5 0.0
23/02:00pm 11.8 2.0 2.5 53 4.2 NW 43 61 23 33 1000.0 1000.8 0.0
23/01:30pm 11.8 2.8 2.5 53 4.1 NW 39 61 21 33 1000.6 1001.4 0.0
23/01:06pm 11.6 1.8 3.1 56 3.8 NW 44 63 24 34 1001.2 1002.0 0.0
23/01:00pm 11.4 0.8 2.9 56 3.8 NW 48 63 26 34 1001.5 1002.3 0.0
23/12:46pm 11.3 0.7 3.1 57 3.7 NW 48 78 26 42 1001.6 1002.4 0.0
23/12:30pm 11.6 2.3 2.9 55 3.9 NW 41 59 22 32 1001.9 1002.7 0.0
23/12:00pm 11.5 3.1 3.8 59 3.5 NW 37 59 20 32 1003.1 1004.0 0.0
23/11:33am 10.9 3.0 4.1 63 3.1 NW 35 57 19 31 1004.1 1004.9 0.0
23/11:30am 10.9 3.5 4.1 63 3.1 NNW 32 48 17 26 1004.1 1004.9 0.0
23/11:28am 10.7 4.1 4.2 64 3.0 NNW 28 48 15 26 1004.1 1004.9 0.0
23/11:00am 9.4 3.2 6.3 81 1.5 N 28 39 15 21 1004.8 1005.7 0.0
23/10:30am 8.9 2.9 6.9 87 1.0 N 28 39 15 21 1006.0 1006.8 0.0
23/10:00am 7.0 0.7 5.9 93 0.5 N 28 35 15 19 1006.8 1007.7 0.0
23/09:30am 6.6 1.1 5.7 94 0.4 N 24 33 13 18 1007.4 1008.3 0.0
23/09:00am 6.0 0.3 4.8 92 0.5 N 24 32 13 17 1007.6 1008.5 0.2
23/08:30am 5.9 1.5 4.7 92 0.5 NNW 17 20 9 11 1008.0 1008.8 0.2
23/08:00am 5.2 1.5 4.2 93 0.4 N 13 19 7 10 1008.6 1009.5 0.2
23/07:30am 6.1 2.6 5.4 95 0.3 N 13 17 7 9 1008.8 1009.7 0.2
23/07:00am 5.4 3.5 5.0 97 0.2 WNW 4 13 2 7 1009.0 1009.9 0.0
23/06:30am 5.3 0.6 5.0 98 0.1 N 19 26 10 14 1008.9 1009.8 0.0
23/06:00am 5.2 -1.3 4.9 98 0.1 N 28 37 15 20 1008.8 1009.7 0.0
23/05:30am 5.2 -0.5 4.9 98 0.1 N 24 35 13 19 1009.2 1010.1 0.0
23/05:00am 4.9 -0.9 4.6 98 0.1 N 24 35 13 19 1009.7 1010.6 0.0
23/04:30am 4.2 -0.4 3.9 98 0.1 N 17 24 9 13 1010.5 1011.4 0.0
23/04:00am 4.1 -1.1 3.8 98 0.1 N 20 30 11 16 1011.1 1012.0 0.0
23/03:30am 4.2 -0.8 3.8 97 0.2 N 19 24 10 13 1011.8 1012.8 0.0
23/03:00am 3.9 -0.4 3.5 97 0.2 N 15 20 8 11 1012.6 1013.5 0.0
23/02:30am 3.9 -1.1 3.5 97 0.2 N 19 26 10 14 1013.2 1014.1 0.0
23/02:00am 3.8 -1.8 3.4 97 0.2 N 22 32 12 17 1013.3 1014.2 0.0
23/01:30am 3.4 -0.2 3.0 97 0.2 NNW 11 22 6 12 1013.7 1014.7 0.0
23/01:00am 3.6 -1.7 3.2 97 0.2 N 20 30 11 16 1013.9 1014.9 0.0
23/12:30am 3.3 -1.1 2.9 97 0.2 N 15 22 8 12 1014.2 1015.2 0.0
23/12:00am 3.3 -2.4 2.7 96 0.2 N 22 32 12 17 1014.8 1015.7 0.0
 
Date/Time
EST
Temp
°C
App
Temp
°C
Dew
Point
°C
Rel
Hum
%
Delta-T
°C
Wind Press
QNH
hPa
Press
MSL
hPa
Rain since
9am
mm
Dir  Spd
km/h
Gust
km/h
Spd
kts
Gust
kts
22/11:30pm 3.3 -1.1 2.6 95 0.3 N 15 24 8 13 1015.4 1016.4 0.0
22/11:00pm 2.8 -2.1 1.9 94 0.4 N 17 20 9 11 1015.9 1016.9 0.0
22/10:30pm 2.4 -2.5 1.7 95 0.3 NNW 17 20 9 11 1016.3 1017.3 0.0
22/10:00pm 1.6 -2.8 0.6 93 0.4 NNW 13 15 7 8 1016.7 1017.7 0.0
22/09:30pm 2.3 -1.7 0.8 90 0.6 NNW 11 15 6 8 1017.2 1018.2 0.0
22/09:00pm 2.7 -2.4 0.9 88 0.7 NNW 17 22 9 12 1017.1 1018.0 0.0
22/08:30pm 3.0 -2.7 0.6 84 0.9 NNW 20 28 11 15 1017.4 1018.4 0.0
22/08:00pm 3.5 -2.2 0.7 82 1.1 NNW 20 28 11 15 1017.8 1018.8 0.0
22/07:30pm 2.9 -0.9 -0.4 79 1.3 N 9 19 5 10 1017.9 1018.9 0.0
22/07:00pm 3.8 -0.7 -0.4 74 1.6 NW 13 20 7 11 1018.1 1019.1 0.0
22/06:30pm 2.9 -1.2 0.0 81 1.1 NNW 11 17 6 9 1018.4 1019.4 0.0
22/06:00pm 3.5 -1.7 0.2 79 1.3 N 17 22 9 12 1018.5 1019.5 0.0
22/05:30pm 3.7 -0.7 0.2 78 1.4 N 13 19 7 10 1018.8 1019.8 0.0
22/05:00pm 4.0 -0.8 0.2 76 1.5 N 15 20 8 11 1019.4 1020.4 0.0
22/04:30pm 4.7 -0.8 0.7 75 1.6 N 19 24 10 13 1019.5 1020.5 0.0
22/04:00pm 6.3 2.1 1.6 72 1.9 N 13 17 7 9 1019.6 1020.6 0.0
22/03:30pm 7.5 3.2 0.7 62 2.8 NW 13 20 7 11 1019.8 1020.8 0.0
22/03:00pm 7.4 3.4 0.4 61 2.8 WNW 11 17 6 9 1020.1 1021.1 0.0
22/02:30pm 7.9 3.2 0.9 61 2.9 NNW 15 20 8 11 1020.4 1021.4 0.0
22/02:00pm 7.8 2.8 1.2 63 2.7 NNW 17 24 9 13 1020.5 1021.5 0.0
22/01:30pm 6.9 2.2 0.8 65 2.5 NW 15 22 8 12 1021.1 1022.2 0.0
22/01:00pm 7.6 2.0 1.0 63 2.7 WNW 20 28 11 15 1021.8 1022.8 0.0
22/12:30pm 7.4 2.3 1.0 64 2.6 NNW 17 26 9 14 1022.3 1023.3 0.0
22/12:00pm 7.4 2.8 1.7 67 2.4 N 15 20 8 11 1022.9 1024.0 0.0
22/11:30am 6.8 1.8 1.5 69 2.2 N 17 24 9 13 1023.3 1024.4 0.0
22/11:00am 5.8 0.7 0.8 70 2.0 NNW 17 20 9 11 1023.7 1024.8 0.0
22/10:30am 5.2 -0.2 1.0 74 1.7 N 19 24 10 13 1024.1 1025.1 0.0
22/10:00am 3.4 0.7 2.5 94 0.4 N 6 7 3 4 1024.4 1025.5 0.0
22/09:30am 0.2 -1.8 -0.2 97 0.1 CALM 0 0 0 0 1024.7 1025.8 0.0
22/09:00am -1.5 -3.8 -2.1 96 0.1 CALM 0 0 0 0 1025.0 1026.1 0.0
22/08:30am -1.6 -4.3 -2.2 96 0.1 ENE 2 6 1 3 1025.3 1026.4 0.0
22/08:00am -2.6 -6.3 -3.1 96 0.1 ESE 7 9 4 5 1025.3 1026.4 0.0
22/07:30am -3.2 -7.0 -3.9 95 0.1 ESE 7 9 4 5 1025.5 1026.6 0.0
22/07:00am -2.3 -4.7 -3.0 95 0.1 CALM 0 0 0 0 1025.7 1026.8 0.0
22/06:30am -2.5 -4.9 -3.2 95 0.1 CALM 0 0 0 0 1025.9 1027.0 0.0
22/06:00am -2.1 -4.8 -2.6 96 0.1 ESE 2 7 1 4 1025.9 1027.0 0.0
22/05:30am -2.2 -5.9 -2.7 96 0.1 ESE 7 9 4 5 1025.9 1027.0 0.0
22/05:00am -2.4 -4.8 -3.1 95 0.1 CALM 0 0 0 0 1025.9 1027.0 0.0
22/04:30am -1.9 -4.2 -2.6 95 0.2 CALM 0 2 0 1 1026.2 1027.2 0.0
22/04:00am -1.3 -4.3 -1.9 96 0.1 ESE 4 6 2 3 1026.3 1027.4 0.0
22/03:30am -1.4 -4.8 -2.0 96 0.1 ESE 6 7 3 4 1026.4 1027.5 0.0
22/03:00am -1.5 -5.1 -2.1 96 0.1 ESE 7 9 4 5 1026.7 1027.8 0.0
22/02:30am -1.9 -5.4 -2.5 96 0.1 ESE 6 7 3 4 1026.9 1028.0 0.0
22/02:00am -1.8 -5.2 -2.2 97 0.1 SE 6 7 3 4 1027.0 1028.1 0.0
22/01:30am -2.8 -6.5 -3.3 96 0.0 ESE 7 7 4 4 1027.2 1028.3 0.0
22/01:00am -3.3 -7.1 -3.8 96 0.0 ESE 7 7 4 4 1027.4 1028.5 0.0
22/12:30am -2.5 -6.0 -2.9 97 0.0 ESE 6 9 3 5 1027.7 1028.8 0.0
22/12:00am -3.5 -7.3 -4.0 96 0.0 ESE 7 7 4 4 1027.9 1029.0 0.0
 
Date/Time
EST
Temp
°C
App
Temp
°C
Dew
Point
°C
Rel
Hum
%
Delta-T
°C
Wind Press
QNH
hPa
Press
MSL
hPa
Rain since
9am
mm
Dir  Spd
km/h
Gust
km/h
Spd
kts
Gust
kts
21/11:30pm -2.9 -6.5 -3.4 96 0.0 ESE 6 7 3 4 1028.0 1029.2 0.0
21/11:00pm -2.3 -5.8 -2.8 96 0.1 ESE 6 7 3 4 1028.1 1029.3 0.0
21/10:30pm -3.2 -7.0 -3.9 95 0.1 ESE 7 9 4 5 1028.2 1029.4 0.0
21/10:00pm -3.6 -7.3 -4.4 94 0.1 ESE 6 9 3 5 1028.2 1029.4 0.0
21/09:30pm -2.8 -5.7 -3.8 93 0.2 SE 2 9 1 5 1028.2 1029.4 0.0
21/09:00pm -1.9 -5.6 -2.7 94 0.2 ESE 7 7 4 4 1028.1 1029.3 0.0
21/08:30pm -1.4 -4.4 -2.2 94 0.2 ESE 4 9 2 5 1028.1 1029.3 0.0
21/08:00pm -2.4 -6.2 -3.8 90 0.4 WNW 7 13 4 7 1028.2 1029.4 0.0
21/07:30pm -1.1 -4.7 -2.2 92 0.3 E 7 11 4 6 1028.2 1029.4 0.0
21/07:00pm -0.5 -3.5 -2.1 89 0.5 W 4 7 2 4 1028.0 1029.2 0.0
21/06:30pm 0.8 -2.4 -0.6 90 0.5 E 6 7 3 4 1027.5 1028.6 0.0
21/06:00pm 1.1 -1.1 -1.6 82 1.0 CALM 0 6 0 3 1027.2 1028.3 0.0
21/05:30pm 2.0 -0.5 -1.1 80 1.1 WNW 2 7 1 4 1026.9 1028.0 0.0
21/05:00pm 2.8 -0.1 -1.0 76 1.4 NW 4 6 2 3 1026.6 1027.7 0.0
21/04:30pm 3.8 0.5 -1.0 71 1.8 WSW 6 9 3 5 1026.3 1027.4 0.0
21/04:00pm 4.9 1.4 -1.1 65 2.3 W 7 13 4 7 1026.0 1027.1 0.0
21/03:30pm 7.5 3.4 -0.2 58 3.1 W 11 17 6 9 1025.8 1026.9 0.0
21/03:00pm 6.4 2.6 -0.8 60 2.8 WSW 9 13 5 7 1025.6 1026.7 0.0
21/02:30pm 6.7 1.8 -0.5 60 2.8 WSW 15 20 8 11 1025.4 1026.5 0.0
21/02:00pm 7.7 2.4 -0.8 55 3.3 WSW 17 26 9 14 1025.2 1026.3 0.0
21/01:30pm 6.7 1.4 -0.5 60 2.8 W 17 28 9 15 1025.0 1026.1 0.0
21/01:00pm 7.4 3.0 0.4 61 2.8 W 13 22 7 12 1024.9 1026.0 0.0
21/12:30pm 6.9 1.6 -0.3 60 2.9 WSW 17 26 9 14 1024.9 1026.0 0.0
21/12:00pm 7.2 1.6 0.0 60 2.9 WSW 19 28 10 15 1024.8 1025.9 0.0
21/11:30am 7.4 1.8 -0.1 59 3.0 WSW 19 30 10 16 1024.9 1026.0 0.0
21/11:00am 6.9 1.7 0.4 63 2.6 W 17 24 9 13 1025.0 1026.1 0.0
21/10:30am 6.0 1.3 1.0 70 2.0 W 15 30 8 16 1024.8 1025.9 0.0
21/10:00am 5.3 0.5 0.5 71 1.9 WSW 15 26 8 14 1024.6 1025.7 0.0
21/09:30am 4.5 0.5 0.5 75 1.6 W 11 15 6 8 1024.2 1025.2 0.0
21/09:00am 3.6 -0.5 0.1 78 1.3 WSW 11 15 6 8 1023.7 1024.8 1.4
21/08:30am 2.6 -1.8 0.2 84 0.9 WSW 13 19 7 10 1023.2 1024.3 1.4
21/08:00am 2.2 -1.5 -0.2 84 0.9 WSW 9 13 5 7 1022.6 1023.7 1.4
21/07:30am 2.8 -2.4 0.2 83 1.0 WSW 17 24 9 13 1021.8 1022.8 1.4
21/07:00am 2.8 -2.8 0.2 83 1.0 WSW 19 28 10 15 1021.0 1022.1 1.4

Other Formats:

Comma delimited format used in spreadsheet applications
http://www.bom.gov.au/fwo/IDT60801/IDT60801.94960.axf

JavaScript Object Notation format (JSON) in row-major order
http://www.bom.gov.au/fwo/IDT60801/IDT60801.94960.json